Time;durP1;ratioP1;P1;durP2;ratioP2;P2;SDS_P1;SDS_P2;PMS_P1;PMS_P2;Temp;Humidity;BMP_temperature;BMP_pressure;BME280_temperature;BME280_humidity;BME280_pressure;Samples;Min_cycle;Max_cycle;Signal;HPM_P1;HPM_P2
2023/01/15 03:00:43;;;;;;;8.60;8.20;;;11.80;99.90;;;;;;6024906;23;20184;-75
2023/01/15 03:03:15;;;;;;;8.80;8.30;;;11.80;99.90;;;;;;5004292;28;20200;-76
2023/01/15 03:05:48;;;;;;;8.50;8.10;;;11.80;99.90;;;;;;5001302;28;20615;-76
2023/01/15 03:08:18;;;;;;;8.83;8.33;;;11.80;99.90;;;;;;5005747;28;20205;-77
2023/01/15 03:10:49;;;;;;;8.90;8.40;;;11.70;99.90;;;;;;5003185;28;20233;-77
2023/01/15 03:13:21;;;;;;;9.07;8.57;;;11.80;99.90;;;;;;4984394;28;20212;-77
2023/01/15 03:19:01;;;;;;;8.77;8.30;;;11.80;99.90;;;;;;4916289;29;20215;-77
2023/01/15 03:21:31;;;;;;;8.73;8.33;;;11.80;99.90;;;;;;4966064;28;20773;-77
2023/01/15 03:24:04;;;;;;;8.80;8.40;;;11.80;99.90;;;;;;4986457;28;20244;-77
2023/01/15 03:26:31;;;;;;;8.60;8.20;;;11.80;99.90;;;;;;4978707;28;20203;-77
2023/01/15 03:29:00;;;;;;;9.00;8.50;;;11.80;99.90;;;;;;4982170;28;20204;-76
2023/01/15 03:31:30;;;;;;;8.83;8.37;;;11.80;99.90;;;;;;4962615;28;20227;-77
2023/01/15 03:33:58;;;;;;;8.43;8.03;;;11.80;99.90;;;;;;4981416;28;20248;-77
2023/01/15 03:36:25;;;;;;;8.80;8.20;;;11.80;99.90;;;;;;4988590;28;20291;-77
2023/01/15 03:38:54;;;;;;;8.80;8.20;;;11.80;99.90;;;;;;4979861;28;20203;-76
2023/01/15 03:41:48;;;;;;;8.93;8.43;;;11.80;99.90;;;;;;4990891;28;20214;-77
2023/01/15 03:44:25;;;;;;;9.23;8.73;;;11.70;99.90;;;;;;4991858;28;20212;-76
2023/01/15 03:47:04;;;;;;;9.30;8.80;;;11.70;99.90;;;;;;4985571;28;20202;-76
2023/01/15 03:49:43;;;;;;;9.20;8.70;;;11.60;99.90;;;;;;4978752;28;20699;-77
2023/01/15 03:52:29;;;;;;;9.07;8.57;;;11.60;99.90;;;;;;4979085;28;20626;-75
2023/01/15 03:55:06;;;;;;;9.03;8.60;;;11.60;99.90;;;;;;4986673;28;20199;-77
2023/01/15 03:57:38;;;;;;;9.20;8.70;;;11.60;99.90;;;;;;4981016;28;20226;-76
2023/01/15 04:00:13;;;;;;;9.00;8.60;;;11.50;99.90;;;;;;4979676;28;20632;-76
2023/01/15 04:02:45;;;;;;;9.20;8.70;;;11.50;99.90;;;;;;4984841;28;20302;-78
2023/01/15 04:05:16;;;;;;;8.93;8.53;;;11.40;99.90;;;;;;4978406;28;20688;-76
2023/01/15 04:07:48;;;;;;;8.93;8.47;;;11.30;99.90;;;;;;4984497;28;20196;-79
2023/01/15 04:10:17;;;;;;;9.10;8.60;;;11.20;99.90;;;;;;4990764;28;20291;-78
2023/01/15 04:12:45;;;;;;;9.20;8.70;;;11.20;99.90;;;;;;4985146;28;20227;-78
2023/01/15 04:15:13;;;;;;;9.30;8.80;;;11.10;99.90;;;;;;4972185;28;20198;-76
2023/01/15 04:17:39;;;;;;;8.90;8.50;;;11.10;99.90;;;;;;4967064;28;20199;-76
2023/01/15 04:20:09;;;;;;;9.00;8.50;;;11.10;99.90;;;;;;4966965;28;20224;-77
2023/01/15 04:22:40;;;;;;;9.07;8.57;;;11.10;99.90;;;;;;4985509;28;20700;-77
2023/01/15 04:25:08;;;;;;;8.80;8.40;;;11.10;99.90;;;;;;4984190;28;20579;-76
2023/01/15 04:27:35;;;;;;;9.20;8.50;;;11.10;99.90;;;;;;4990936;28;20589;-77
2023/01/15 04:30:02;;;;;;;9.30;8.80;;;11.10;99.90;;;;;;4985999;28;20307;-77
2023/01/15 04:32:28;;;;;;;9.47;8.93;;;11.00;99.90;;;;;;4978176;28;20577;-76
2023/01/15 04:34:55;;;;;;;9.10;8.60;;;11.00;99.90;;;;;;4979444;28;20213;-77
2023/01/15 04:37:23;;;;;;;9.37;8.87;;;11.00;99.90;;;;;;4987857;28;20683;-77
2023/01/15 04:39:50;;;;;;;9.40;8.90;;;11.10;99.90;;;;;;4985532;28;20287;-76
2023/01/15 04:45:01;;;;;;;9.50;9.00;;;11.10;99.90;;;;;;4979792;28;20268;-77
2023/01/15 04:47:30;;;;;;;9.43;8.90;;;11.20;99.90;;;;;;4966564;28;20228;-77
2023/01/15 04:49:57;;;;;;;9.10;8.60;;;11.20;99.90;;;;;;4967904;28;20218;-76
2023/01/15 04:52:25;;;;;;;9.30;8.80;;;11.20;99.90;;;;;;4971870;28;20220;-77
2023/01/15 04:54:54;;;;;;;9.20;8.70;;;11.20;99.90;;;;;;4985419;28;20212;-77
2023/01/15 04:57:21;;;;;;;9.07;8.63;;;11.30;99.90;;;;;;4992187;28;20211;-76
2023/01/15 04:59:48;;;;;;;9.03;8.63;;;11.30;99.90;;;;;;4983278;28;20195;-76
2023/01/15 05:02:15;;;;;;;8.97;8.47;;;11.30;99.90;;;;;;4991098;28;20278;-76
2023/01/15 05:04:41;;;;;;;9.00;8.50;;;11.40;99.90;;;;;;4984093;28;20194;-76
2023/01/15 05:07:09;;;;;;;8.90;8.50;;;11.40;99.90;;;;;;4962924;28;20204;-77
2023/01/15 05:09:38;;;;;;;9.10;8.60;;;11.40;99.90;;;;;;4957834;28;20203;-76
2023/01/15 05:12:06;;;;;;;8.80;8.40;;;11.40;99.90;;;;;;4963440;28;20228;-76
2023/01/15 05:14:32;;;;;;;8.93;8.43;;;11.40;99.90;;;;;;4987334;28;20249;-76
2023/01/15 05:16:59;;;;;;;8.73;8.33;;;11.50;99.90;;;;;;4984167;28;20221;-77
2023/01/15 05:19:26;;;;;;;9.00;8.50;;;11.50;99.90;;;;;;4991011;28;20233;-76
2023/01/15 05:21:53;;;;;;;9.13;8.67;;;11.50;99.90;;;;;;4965676;28;20243;-78
2023/01/15 05:24:20;;;;;;;9.00;8.50;;;11.50;99.90;;;;;;4969188;28;20287;-80
2023/01/15 05:26:48;;;;;;;9.30;8.80;;;11.40;99.90;;;;;;4986798;28;20257;-78
2023/01/15 05:29:15;;;;;;;9.07;8.63;;;11.40;99.90;;;;;;4987557;28;20267;-79
2023/01/15 05:31:43;;;;;;;9.27;8.77;;;11.40;99.90;;;;;;4981944;28;20223;-78
2023/01/15 05:34:10;;;;;;;9.40;8.90;;;11.40;99.90;;;;;;4981521;28;20444;-79
2023/01/15 05:36:38;;;;;;;9.50;9.00;;;11.40;99.90;;;;;;4987763;28;20221;-78
2023/01/15 05:39:05;;;;;;;10.10;9.60;;;11.40;99.90;;;;;;4991353;28;20960;-77
2023/01/15 05:44:24;;;;;;;8.50;8.00;;;11.30;99.90;;;;;;4967167;28;20983;-76
2023/01/15 05:46:53;;;;;;;9.68;9.18;;;11.30;99.90;;;;;;4965478;28;20451;-78
2023/01/15 05:49:22;;;;;;;9.47;8.97;;;11.30;99.90;;;;;;4975960;28;20205;-76
2023/01/15 05:51:49;;;;;;;9.73;9.23;;;11.30;99.90;;;;;;4987732;28;20219;-78
2023/01/15 05:54:18;;;;;;;9.30;8.80;;;11.30;99.90;;;;;;4986812;28;20576;-80
2023/01/15 05:56:46;;;;;;;9.40;8.90;;;11.30;99.90;;;;;;4987189;28;20217;-78
2023/01/15 05:59:14;;;;;;;9.30;8.80;;;11.30;99.90;;;;;;4992759;28;20202;-79
2023/01/15 06:01:42;;;;;;;9.20;8.70;;;11.20;99.90;;;;;;4977725;28;20231;-80
2023/01/15 06:04:12;;;;;;;9.00;8.60;;;11.20;99.90;;;;;;4991586;28;20670;-79
2023/01/15 06:06:40;;;;;;;8.90;8.40;;;11.10;99.90;;;;;;4980464;28;20205;-80
2023/01/15 06:09:07;;;;;;;8.80;8.40;;;11.10;99.90;;;;;;4976435;28;20205;-80
2023/01/15 06:11:34;;;;;;;9.20;8.70;;;11.00;99.90;;;;;;4983710;28;20319;-81
2023/01/15 06:14:01;;;;;;;9.47;8.90;;;11.00;99.90;;;;;;4990779;28;20198;-80
2023/01/15 06:16:28;;;;;;;9.30;8.80;;;11.00;99.90;;;;;;4971780;28;20203;-81
2023/01/15 06:19:00;;;;;;;9.30;8.80;;;11.00;99.90;;;;;;4979736;28;20211;-79
2023/01/15 06:21:27;;;;;;;9.27;8.77;;;10.90;99.90;;;;;;4978465;28;20212;-78
2023/01/15 06:23:54;;;;;;;9.53;8.93;;;10.90;99.90;;;;;;4984016;28;20751;-79
2023/01/15 06:26:21;;;;;;;9.80;9.30;;;10.90;99.90;;;;;;4987502;28;20232;-80
2023/01/15 06:28:48;;;;;;;9.77;9.27;;;10.90;99.90;;;;;;4984338;28;20195;-79
2023/01/15 06:31:17;;;;;;;9.70;9.20;;;10.80;99.90;;;;;;4983397;28;20227;-81
2023/01/15 06:33:44;;;;;;;9.83;9.33;;;10.60;99.90;;;;;;4978621;28;20704;-83
2023/01/15 06:36:14;;;;;;;10.40;9.80;;;10.40;99.90;;;;;;4978139;28;20215;-81
2023/01/15 06:38:42;;;;;;;10.63;10.03;;;10.10;99.90;;;;;;4964677;28;20960;-83
2023/01/15 06:49:34;;;;;;;10.10;9.60;;;9.20;99.90;;;;;;4960103;28;20621;-77
2023/01/15 06:52:03;;;;;;;10.40;9.80;;;9.00;99.90;;;;;;4990643;28;20223;-79
2023/01/15 06:54:30;;;;;;;10.10;9.60;;;8.90;99.90;;;;;;4979756;28;20197;-79
2023/01/15 06:56:57;;;;;;;10.10;9.60;;;8.80;99.90;;;;;;4990392;28;20209;-79
2023/01/15 06:59:24;;;;;;;10.13;9.63;;;8.70;99.90;;;;;;4985318;28;20585;-78
2023/01/15 07:01:50;;;;;;;9.90;9.40;;;8.60;99.90;;;;;;4986896;28;20267;-78
2023/01/15 07:04:17;;;;;;;9.80;9.30;;;8.70;99.90;;;;;;4983219;28;20210;-85
2023/01/15 07:06:44;;;;;;;10.47;9.97;;;8.60;99.90;;;;;;4987222;28;20248;-78
2023/01/15 07:09:12;;;;;;;9.97;9.40;;;8.50;99.90;;;;;;4971053;28;20209;-82
2023/01/15 07:11:48;;;;;;;10.13;9.43;;;8.50;99.90;;;;;;4963023;28;20222;-78
2023/01/15 07:14:15;;;;;;;10.10;9.60;;;8.40;99.90;;;;;;4960806;28;20285;-79
2023/01/15 07:16:42;;;;;;;9.53;9.03;;;8.30;99.90;;;;;;4958079;28;20206;-79
2023/01/15 07:19:09;;;;;;;9.60;9.10;;;8.30;99.90;;;;;;4955943;28;20717;-80
2023/01/15 07:21:36;;;;;;;9.70;9.20;;;8.20;99.90;;;;;;4957185;28;20214;-79
2023/01/15 07:24:03;;;;;;;9.53;9.03;;;8.20;99.90;;;;;;4958447;28;20277;-79
2023/01/15 07:26:31;;;;;;;9.80;9.30;;;8.10;99.90;;;;;;4956864;28;20214;-79
2023/01/15 07:28:58;;;;;;;9.60;9.10;;;8.00;99.90;;;;;;4957016;28;20265;-78
2023/01/15 07:31:24;;;;;;;9.70;9.20;;;7.90;99.90;;;;;;4963504;28;20225;-80
2023/01/15 07:33:51;;;;;;;9.70;9.20;;;7.80;99.90;;;;;;4960204;28;20670;-77
2023/01/15 07:36:18;;;;;;;10.30;9.80;;;7.80;99.90;;;;;;4975348;28;20212;-78
2023/01/15 07:38:45;;;;;;;9.50;9.00;;;7.70;99.90;;;;;;4977525;28;20201;-79
2023/01/15 07:49:47;;;;;;;9.90;9.40;;;7.60;99.90;;;;;;4964915;28;20207;-78
2023/01/15 07:52:14;;;;;;;9.90;9.40;;;7.50;99.90;;;;;;4981701;28;20228;-79
2023/01/15 07:54:41;;;;;;;9.50;9.00;;;7.50;99.90;;;;;;4981119;28;20554;-79
2023/01/15 07:57:09;;;;;;;9.23;8.73;;;7.40;99.90;;;;;;4976429;28;20210;-79
2023/01/15 07:59:37;;;;;;;9.40;8.90;;;7.40;99.90;;;;;;4968948;28;20234;-80
2023/01/15 08:02:04;;;;;;;9.23;8.73;;;7.40;99.90;;;;;;4985134;28;20238;-79
2023/01/15 08:04:31;;;;;;;9.20;8.70;;;7.40;99.90;;;;;;4983528;28;20688;-78
2023/01/15 08:07:00;;;;;;;9.20;8.70;;;7.40;99.90;;;;;;4968205;28;20216;-80
2023/01/15 08:09:27;;;;;;;9.23;8.73;;;7.40;99.90;;;;;;4968631;28;20203;-78
2023/01/15 08:17:24;;;;;;;9.70;9.20;;;7.40;99.90;;;;;;4962219;28;20198;-80
2023/01/15 08:19:51;;;;;;;9.80;9.30;;;7.40;99.90;;;;;;4969993;28;20692;-79
2023/01/15 08:22:17;;;;;;;9.70;9.20;;;7.40;99.90;;;;;;4982990;28;20276;-79
2023/01/15 08:24:44;;;;;;;9.30;8.80;;;7.40;99.90;;;;;;4981101;28;20669;-80
2023/01/15 08:27:12;;;;;;;9.30;8.80;;;7.40;99.90;;;;;;4986997;28;20638;-79
2023/01/15 08:29:40;;;;;;;9.60;9.10;;;7.50;99.90;;;;;;4987572;28;20201;-78
2023/01/15 08:32:07;;;;;;;9.77;9.27;;;7.50;99.90;;;;;;4978462;28;20232;-79
2023/01/15 08:34:34;;;;;;;9.50;9.00;;;7.40;99.90;;;;;;4989012;28;20201;-80
2023/01/15 08:37:01;;;;;;;9.40;8.90;;;7.50;99.90;;;;;;4983940;28;20208;-79
2023/01/15 08:39:28;;;;;;;9.30;8.80;;;7.50;99.90;;;;;;4974393;28;20291;-79
2023/01/15 08:41:55;;;;;;;9.20;8.70;;;7.50;99.90;;;;;;4979575;28;20273;-79
2023/01/15 08:44:23;;;;;;;9.20;8.70;;;7.40;99.90;;;;;;4962928;28;20922;-78
2023/01/15 08:46:52;;;;;;;9.53;9.03;;;7.40;99.90;;;;;;4972151;28;20237;-82
2023/01/15 08:49:20;;;;;;;9.20;8.70;;;7.40;99.90;;;;;;4980581;28;20653;-84
2023/01/15 08:51:50;;;;;;;9.50;9.00;;;7.40;99.90;;;;;;4987984;28;20217;-81
2023/01/15 08:54:18;;;;;;;9.60;9.10;;;7.40;99.90;;;;;;4970270;28;20233;-78
2023/01/15 08:56:45;;;;;;;9.43;8.93;;;7.40;99.90;;;;;;4958250;28;20534;-78
2023/01/15 08:59:12;;;;;;;9.53;9.03;;;7.40;99.90;;;;;;4957618;28;20213;-77
2023/01/15 09:01:39;;;;;;;9.27;8.77;;;7.30;99.90;;;;;;4965573;28;20217;-78
2023/01/15 09:04:07;;;;;;;9.20;8.70;;;7.30;99.90;;;;;;4956389;28;20198;-78
2023/01/15 09:06:35;;;;;;;9.13;8.63;;;7.30;99.90;;;;;;4956240;28;20205;-79
2023/01/15 09:09:02;;;;;;;9.20;8.70;;;7.30;99.90;;;;;;4966899;28;20205;-78
2023/01/15 09:11:29;;;;;;;9.20;8.70;;;7.30;99.90;;;;;;4968203;28;20209;-77
2023/01/15 09:13:56;;;;;;;9.30;8.80;;;7.30;99.90;;;;;;4966759;28;20197;-79
2023/01/15 09:16:25;;;;;;;9.27;8.77;;;7.40;99.90;;;;;;4970635;28;20216;-79
2023/01/15 09:18:52;;;;;;;9.20;8.70;;;7.40;99.90;;;;;;4986252;28;20205;-78
2023/01/15 09:21:20;;;;;;;9.50;9.00;;;7.40;99.90;;;;;;4983431;28;20233;-79
2023/01/15 09:23:47;;;;;;;9.23;8.73;;;7.40;99.90;;;;;;4985450;28;20237;-78
2023/01/15 09:26:31;;;;;;;9.00;8.60;;;7.30;99.90;;;;;;4989671;28;20201;-79
2023/01/15 09:28:59;;;;;;;9.30;8.80;;;7.40;99.90;;;;;;4981664;28;20203;-79
2023/01/15 09:31:26;;;;;;;9.10;8.60;;;7.30;99.90;;;;;;4967767;28;20221;-77
2023/01/15 09:33:53;;;;;;;9.30;8.80;;;7.30;99.90;;;;;;4965582;28;20197;-77
2023/01/15 09:36:24;;;;;;;8.70;8.30;;;7.30;99.90;;;;;;4961584;28;20663;-78
2023/01/15 09:38:51;;;;;;;8.93;8.47;;;7.30;99.90;;;;;;4971701;28;20208;-77
2023/01/15 09:44:21;;;;;;;9.90;9.30;;;7.30;99.90;;;;;;4979357;28;20202;-77
2023/01/15 09:47:01;;;;;;;9.40;8.90;;;7.30;99.90;;;;;;4982040;28;20200;-77
2023/01/15 09:49:43;;;;;;;9.07;8.57;;;7.30;99.90;;;;;;4974928;28;20681;-77
2023/01/15 09:52:24;;;;;;;9.20;8.70;;;7.30;99.90;;;;;;4984031;28;20216;-77
2023/01/15 09:55:01;;;;;;;9.20;8.70;;;7.40;99.90;;;;;;4974631;28;20201;-77
2023/01/15 09:57:29;;;;;;;8.93;8.43;;;7.40;99.90;;;;;;4975037;28;20201;-77
2023/01/15 10:00:00;;;;;;;8.80;8.30;;;7.40;99.90;;;;;;4980317;28;20292;-77
2023/01/15 10:02:34;;;;;;;8.77;8.37;;;7.30;99.90;;;;;;4965356;28;20219;-77
2023/01/15 10:05:07;;;;;;;8.73;8.27;;;7.40;99.90;;;;;;4976929;28;20257;-77
2023/01/15 10:07:41;;;;;;;8.70;8.20;;;7.30;99.90;;;;;;4966766;28;20192;-77
2023/01/15 10:10:13;;;;;;;8.70;8.30;;;7.30;99.90;;;;;;4988325;28;20201;-76
2023/01/15 10:12:43;;;;;;;8.60;8.00;;;7.30;99.90;;;;;;4991005;28;20235;-78
2023/01/15 10:15:36;;;;;;;8.57;8.17;;;7.20;99.90;;;;;;4990985;28;20204;-76
2023/01/15 10:18:06;;;;;;;8.63;8.13;;;7.30;99.90;;;;;;4972341;28;20201;-77
2023/01/15 10:21:06;;;;;;;8.80;8.30;;;7.30;99.90;;;;;;4990116;28;20208;-77
2023/01/15 10:23:41;;;;;;;8.90;8.40;;;7.30;99.90;;;;;;4962678;28;20309;-77
2023/01/15 10:26:32;;;;;;;8.37;7.97;;;7.20;99.90;;;;;;4969021;28;20259;-77
2023/01/15 10:29:02;;;;;;;8.67;8.17;;;7.30;99.90;;;;;;4977877;28;20260;-77
2023/01/15 10:31:48;;;;;;;8.60;8.10;;;7.30;99.90;;;;;;4978728;28;20283;-77
2023/01/15 10:34:32;;;;;;;8.53;8.03;;;7.20;99.90;;;;;;4980096;28;20213;-77
2023/01/15 10:37:05;;;;;;;8.20;7.80;;;7.20;99.90;;;;;;4975073;28;20204;-77
2023/01/15 10:39:41;;;;;;;8.53;8.03;;;7.20;99.90;;;;;;4972599;28;20700;-77
2023/01/15 10:42:18;;;;;;;8.47;8.00;;;7.20;99.90;;;;;;4983055;28;20313;-77
2023/01/15 10:44:52;;;;;;;8.60;8.20;;;7.20;99.90;;;;;;4985154;28;20200;-77
2023/01/15 10:47:26;;;;;;;8.40;8.00;;;7.20;99.90;;;;;;4992133;28;20232;-76
2023/01/15 10:49:53;;;;;;;8.40;8.00;;;7.20;99.90;;;;;;4977379;28;20206;-77
2023/01/15 10:52:26;;;;;;;8.37;7.97;;;7.20;99.90;;;;;;4974822;28;20218;-77
2023/01/15 10:55:03;;;;;;;8.30;7.90;;;7.10;99.90;;;;;;4976739;28;20198;-77
2023/01/15 10:57:42;;;;;;;8.70;8.20;;;7.00;99.90;;;;;;4976445;28;20198;-77
2023/01/15 11:00:12;;;;;;;8.53;8.03;;;6.90;99.90;;;;;;4988367;28;20230;-77
2023/01/15 11:02:42;;;;;;;8.40;8.00;;;6.90;99.90;;;;;;4984499;28;20239;-77
2023/01/15 11:05:14;;;;;;;8.57;8.10;;;6.90;99.90;;;;;;4974548;28;20212;-77
2023/01/15 11:07:43;;;;;;;8.70;8.20;;;6.90;99.90;;;;;;4987840;28;20199;-77
2023/01/15 11:10:14;;;;;;;8.87;8.37;;;6.90;99.90;;;;;;4977091;28;20205;-78
2023/01/15 11:21:14;;;;;;;8.60;8.10;;;6.80;99.90;;;;;;4978514;28;20610;-78
2023/01/15 11:23:41;;;;;;;8.90;8.40;;;6.80;99.90;;;;;;4963132;28;20595;-77
2023/01/15 11:26:16;;;;;;;8.77;8.37;;;6.80;99.90;;;;;;4971800;28;20223;-78
2023/01/15 11:28:45;;;;;;;9.10;8.60;;;6.80;99.90;;;;;;4988397;28;20256;-78
2023/01/15 11:31:13;;;;;;;9.00;8.40;;;6.80;99.90;;;;;;4986340;28;20598;-78
2023/01/15 11:33:43;;;;;;;9.00;8.50;;;6.80;99.90;;;;;;4980471;28;20220;-78
2023/01/15 11:36:21;;;;;;;9.37;8.77;;;6.80;99.90;;;;;;4985315;28;20727;-77
2023/01/15 11:38:50;;;;;;;9.70;9.00;;;6.70;99.90;;;;;;4971968;28;20237;-77
2023/01/15 11:41:22;;;;;;;9.60;9.00;;;6.70;99.90;;;;;;4981091;28;20232;-77
2023/01/15 11:52:25;;;;;;;9.30;8.80;;;6.60;99.90;;;;;;4933056;28;20236;-79
2023/01/15 11:55:20;;;;;;;9.27;8.77;;;6.60;99.90;;;;;;4984173;28;20227;-78
2023/01/15 11:57:50;;;;;;;9.60;9.10;;;6.60;99.90;;;;;;4975893;28;20308;-79
2023/01/15 12:00:23;;;;;;;9.70;9.20;;;6.50;99.90;;;;;;4974936;28;20707;-79
2023/01/15 12:02:52;;;;;;;9.50;9.00;;;6.40;99.90;;;;;;4966142;28;20222;-79
2023/01/15 12:05:20;;;;;;;9.50;9.00;;;6.30;99.90;;;;;;4987273;28;20212;-79
2023/01/15 12:07:49;;;;;;;9.57;9.07;;;6.10;99.90;;;;;;4983459;28;20208;-79
2023/01/15 12:11:02;;;;;;;9.50;9.00;;;6.00;99.90;;;;;;4975623;28;20282;-79
2023/01/15 12:13:20;;;;;;;9.60;9.10;;;5.80;99.90;;;;;;4969380;28;20226;-79
2023/01/15 12:15:56;;;;;;;9.80;9.30;;;5.80;99.90;;;;;;4984279;28;20198;-80
2023/01/15 12:18:52;;;;;;;9.90;9.37;;;5.70;99.90;;;;;;4971831;28;20280;-78
2023/01/15 12:21:44;;;;;;;10.00;9.40;;;5.80;99.90;;;;;;4986955;28;20223;-78
2023/01/15 12:24:34;;;;;;;10.00;9.50;;;5.80;99.90;;;;;;4989787;28;20212;-78
2023/01/15 12:27:29;;;;;;;9.53;9.03;;;5.70;99.90;;;;;;4981000;28;20204;-78
2023/01/15 12:30:13;;;;;;;9.60;9.10;;;5.60;99.90;;;;;;4973472;28;20194;-80
2023/01/15 12:32:44;;;;;;;9.60;9.10;;;5.50;99.90;;;;;;4986985;28;20221;-78
2023/01/15 12:35:18;;;;;;;9.10;8.60;;;5.50;99.90;;;;;;4980784;28;20674;-80
2023/01/15 12:37:50;;;;;;;9.30;8.80;;;5.50;99.90;;;;;;4993735;28;20206;-81
2023/01/15 12:40:21;;;;;;;9.20;8.70;;;5.40;99.90;;;;;;4983798;28;20666;-81
2023/01/15 12:45:41;;;;;;;9.30;8.80;;;5.40;99.90;;;;;;4991019;28;20208;-81
2023/01/15 12:48:16;;;;;;;9.03;8.53;;;5.40;99.90;;;;;;4985603;28;20225;-81
2023/01/15 12:50:46;;;;;;;9.10;8.60;;;5.40;99.90;;;;;;4980774;28;20205;-79
2023/01/15 12:53:18;;;;;;;9.03;8.53;;;5.50;99.90;;;;;;4988682;28;20217;-81
2023/01/15 12:55:52;;;;;;;9.30;8.80;;;5.50;99.90;;;;;;4978032;28;20747;-81
2023/01/15 12:58:31;;;;;;;9.40;8.90;;;5.50;99.90;;;;;;4991175;28;20263;-82
2023/01/15 13:01:05;;;;;;;8.93;8.43;;;5.50;99.90;;;;;;4973089;28;20649;-81
2023/01/15 13:03:40;;;;;;;8.80;8.30;;;5.50;99.90;;;;;;4964409;28;20768;-80
2023/01/15 13:06:13;;;;;;;8.73;8.30;;;5.50;99.90;;;;;;4977497;28;20230;-82
2023/01/15 13:08:49;;;;;;;9.10;8.60;;;5.50;99.90;;;;;;4975749;28;20239;-80
2023/01/15 13:11:19;;;;;;;8.90;8.50;;;5.50;99.90;;;;;;4965933;28;20285;-81
2023/01/15 13:13:56;;;;;;;9.40;8.90;;;5.60;99.90;;;;;;4984835;28;20376;-79
2023/01/15 13:16:33;;;;;;;9.50;9.00;;;5.60;99.90;;;;;;4983928;28;20291;-79
2023/01/15 13:19:10;;;;;;;9.60;9.10;;;5.60;99.90;;;;;;4975022;28;20198;-80
2023/01/15 13:21:42;;;;;;;9.17;8.67;;;5.60;99.90;;;;;;4962339;28;20218;-81
2023/01/15 13:24:26;;;;;;;10.00;9.50;;;5.70;99.90;;;;;;4974127;28;20206;-80
2023/01/15 13:27:11;;;;;;;9.50;9.00;;;5.70;99.90;;;;;;4970800;28;20196;-79
2023/01/15 13:29:50;;;;;;;9.50;9.00;;;5.70;99.90;;;;;;4973624;28;20212;-80
2023/01/15 13:32:20;;;;;;;9.47;8.97;;;5.70;99.90;;;;;;4975884;28;20222;-80
2023/01/15 13:34:50;;;;;;;9.50;9.00;;;5.80;99.90;;;;;;4986202;28;20264;-81
2023/01/15 13:37:25;;;;;;;9.70;9.10;;;5.80;99.90;;;;;;4968359;28;20226;-77
2023/01/15 13:39:57;;;;;;;9.37;8.87;;;5.80;99.90;;;;;;4964272;28;20198;-77
2023/01/15 13:42:31;;;;;;;9.50;9.00;;;5.80;99.90;;;;;;4964366;28;20706;-76
2023/01/15 13:45:01;;;;;;;9.80;9.23;;;5.90;99.90;;;;;;4960580;28;20204;-77
2023/01/15 13:47:33;;;;;;;9.70;9.17;;;5.80;99.90;;;;;;4970203;28;20214;-76
2023/01/15 13:50:04;;;;;;;9.57;8.97;;;5.90;99.90;;;;;;4968819;28;20200;-77
2023/01/15 13:52:36;;;;;;;9.77;9.00;;;5.90;99.90;;;;;;4969446;28;20215;-77
2023/01/15 13:55:10;;;;;;;9.60;9.00;;;5.80;99.90;;;;;;4978066;28;20836;-77
2023/01/15 13:57:40;;;;;;;10.00;9.27;;;5.80;99.90;;;;;;4984994;28;20264;-76
2023/01/15 14:00:08;;;;;;;9.20;8.70;;;5.80;99.90;;;;;;4980336;28;20289;-78
2023/01/15 14:02:43;;;;;;;9.33;8.83;;;5.80;99.90;;;;;;4982884;28;20738;-78
2023/01/15 14:05:28;;;;;;;9.93;9.23;;;5.80;99.90;;;;;;4987857;28;20202;-78
2023/01/15 14:07:55;;;;;;;9.50;8.90;;;5.80;99.90;;;;;;4984314;28;20248;-77
2023/01/15 14:10:37;;;;;;;10.03;9.33;;;5.70;99.90;;;;;;4974219;28;20203;-77
2023/01/15 14:13:57;;;;;;;9.40;8.80;;;5.80;99.90;;;;;;4981772;28;20569;-77
2023/01/15 14:16:39;;;;;;;9.70;9.00;;;5.80;99.90;;;;;;4981801;28;20222;-77
2023/01/15 14:19:30;;;;;;;9.43;8.83;;;5.80;99.90;;;;;;4990787;28;20207;-78
2023/01/15 14:22:26;;;;;;;9.80;9.20;;;5.90;99.90;;;;;;4986171;28;20219;-77
2023/01/15 14:25:18;;;;;;;9.60;8.90;;;5.90;99.90;;;;;;4979010;28;20254;-76
2023/01/15 14:28:04;;;;;;;9.40;8.70;;;5.90;99.90;;;;;;4976397;28;20199;-77
2023/01/15 14:31:11;;;;;;;9.67;9.07;;;5.90;99.90;;;;;;4982017;28;20198;-78
2023/01/15 14:33:50;;;;;;;9.83;9.13;;;5.80;99.90;;;;;;4980448;28;20606;-78
2023/01/15 14:36:23;;;;;;;9.67;9.17;;;5.80;99.90;;;;;;4987896;28;20198;-77
2023/01/15 14:38:55;;;;;;;9.90;9.20;;;5.70;99.90;;;;;;4993494;28;20260;-77
2023/01/15 14:41:26;;;;;;;9.87;9.17;;;5.70;99.90;;;;;;4986775;28;20689;-77
2023/01/15 14:43:54;;;;;;;9.80;9.00;;;5.70;99.90;;;;;;4974705;28;20533;-77
2023/01/15 14:46:27;;;;;;;9.70;9.17;;;5.60;99.90;;;;;;4992575;28;20208;-78
2023/01/15 14:48:56;;;;;;;9.23;8.70;;;5.60;99.90;;;;;;4980514;28;20199;-77
2023/01/15 14:51:30;;;;;;;9.20;8.70;;;5.50;99.90;;;;;;4980582;28;20304;-78
2023/01/15 14:54:01;;;;;;;9.20;8.60;;;5.50;99.90;;;;;;4987434;28;20266;-77
2023/01/15 14:56:35;;;;;;;9.33;8.77;;;5.50;99.90;;;;;;4967357;28;20208;-78
2023/01/15 14:59:11;;;;;;;9.13;8.60;;;5.40;99.90;;;;;;4990171;28;20205;-77
2023/01/15 15:01:43;;;;;;;9.00;8.50;;;5.40;99.90;;;;;;4983254;28;20227;-78
2023/01/15 15:04:19;;;;;;;9.23;8.73;;;5.40;99.90;;;;;;4975138;28;20194;-81
2023/01/15 15:06:51;;;;;;;9.07;8.57;;;5.40;99.90;;;;;;4968894;28;20628;-80
2023/01/15 15:09:33;;;;;;;9.03;8.43;;;5.30;99.90;;;;;;4980656;28;20233;-80
2023/01/15 15:12:20;;;;;;;9.00;8.50;;;5.30;99.90;;;;;;4981227;28;20225;-80
2023/01/15 15:14:52;;;;;;;9.57;8.97;;;5.30;99.90;;;;;;4988062;28;20212;-81
2023/01/15 15:17:28;;;;;;;9.67;9.07;;;5.20;99.90;;;;;;4999818;28;20392;-80
2023/01/15 15:20:06;;;;;;;9.60;9.00;;;5.20;99.90;;;;;;4985069;28;20220;-80
2023/01/15 15:22:39;;;;;;;9.73;9.13;;;5.20;99.90;;;;;;4985612;28;20700;-79
2023/01/15 15:25:12;;;;;;;10.13;9.43;;;5.10;99.90;;;;;;4987382;28;20601;-79
2023/01/15 15:27:39;;;;;;;10.00;9.40;;;5.10;99.90;;;;;;4986076;28;20197;-80
2023/01/15 15:30:07;;;;;;;10.20;9.60;;;5.00;99.90;;;;;;4984244;28;20249;-79
2023/01/15 15:32:40;;;;;;;10.20;9.60;;;5.00;99.90;;;;;;4990278;28;20224;-80
2023/01/15 15:35:23;;;;;;;9.93;9.33;;;4.90;99.90;;;;;;4987697;28;20186;-80
2023/01/15 15:37:52;;;;;;;9.50;9.00;;;4.90;99.90;;;;;;4984064;28;20732;-80
2023/01/15 15:40:24;;;;;;;9.90;9.20;;;4.80;99.90;;;;;;4977268;28;20640;-79
2023/01/15 15:48:42;;;;;;;9.73;9.13;;;4.70;99.90;;;;;;5003055;28;20246;-80
2023/01/15 15:51:27;;;;;;;9.47;8.87;;;4.60;99.90;;;;;;4981680;28;20222;-81
2023/01/15 15:54:05;;;;;;;9.80;9.20;;;4.60;99.90;;;;;;4983939;28;20214;-80
2023/01/15 15:56:32;;;;;;;9.60;9.00;;;4.50;99.90;;;;;;5001767;28;20625;-81
2023/01/15 15:59:00;;;;;;;9.60;9.00;;;4.50;99.90;;;;;;4985098;28;20201;-80
2023/01/15 16:01:27;;;;;;;9.90;9.30;;;4.40;99.90;;;;;;4989611;28;20279;-81
2023/01/15 16:03:54;;;;;;;9.90;9.30;;;4.40;99.90;;;;;;5004433;28;20193;-81
2023/01/15 16:06:27;;;;;;;9.80;9.20;;;4.30;99.90;;;;;;5002891;28;20236;-81
2023/01/15 16:08:55;;;;;;;9.83;9.17;;;4.30;99.90;;;;;;5004385;28;20197;-82
2023/01/15 16:11:24;;;;;;;9.60;9.00;;;4.30;99.90;;;;;;5008446;28;20610;-81
2023/01/15 16:13:53;;;;;;;10.20;9.60;;;4.20;99.90;;;;;;4999103;28;20237;-81
2023/01/15 16:16:21;;;;;;;10.37;9.67;;;4.20;99.90;;;;;;5004696;28;20274;-81
2023/01/15 16:18:53;;;;;;;11.07;10.20;;;4.10;99.90;;;;;;5007147;28;20293;-80
2023/01/15 16:21:24;;;;;;;10.07;9.37;;;4.10;99.90;;;;;;5003138;28;20224;-81
2023/01/15 16:23:57;;;;;;;10.10;9.40;;;4.10;99.90;;;;;;5010445;28;20607;-81
2023/01/15 16:26:33;;;;;;;9.93;9.23;;;4.10;99.90;;;;;;5000814;28;20209;-80
2023/01/15 16:29:03;;;;;;;10.37;9.53;;;4.10;99.90;;;;;;5003367;28;20189;-81
2023/01/15 16:31:33;;;;;;;11.00;9.97;;;4.00;99.90;;;;;;4993323;28;20624;-81
2023/01/15 16:34:03;;;;;;;11.20;10.50;;;4.10;99.90;;;;;;5003496;28;20201;-81
2023/01/15 16:36:39;;;;;;;11.00;10.30;;;4.20;99.90;;;;;;4996025;28;20193;-80
2023/01/15 16:39:17;;;;;;;10.80;10.10;;;4.20;99.90;;;;;;5004781;28;20192;-80
2023/01/15 16:41:48;;;;;;;11.00;10.30;;;4.10;99.90;;;;;;5006366;28;20232;-78
2023/01/15 16:44:46;;;;;;;11.53;10.63;;;4.10;99.90;;;;;;5001860;28;20673;-78
2023/01/15 16:47:26;;;;;;;10.90;10.27;;;4.10;99.90;;;;;;4994506;28;20220;-79
2023/01/15 16:49:53;;;;;;;10.83;10.13;;;4.10;99.90;;;;;;5000865;28;20250;-81
2023/01/15 16:52:48;;;;;;;11.40;10.40;;;4.10;99.90;;;;;;4998557;28;20249;-81
2023/01/15 16:55:34;;;;;;;11.33;10.47;;;4.10;99.90;;;;;;4991176;28;20228;-80
2023/01/15 16:58:17;;;;;;;11.13;10.43;;;4.10;99.90;;;;;;4987403;28;20678;-80
2023/01/15 17:00:46;;;;;;;11.23;10.53;;;4.00;99.90;;;;;;4980310;28;20202;-82
2023/01/15 17:03:14;;;;;;;11.10;10.30;;;4.00;99.90;;;;;;4981875;28;20256;-80
2023/01/15 17:05:42;;;;;;;10.70;10.00;;;3.90;99.90;;;;;;4980648;28;20202;-81
2023/01/15 17:08:16;;;;;;;10.93;10.13;;;3.90;99.90;;;;;;4981992;28;20697;-82
2023/01/15 17:10:52;;;;;;;10.57;9.77;;;3.90;99.90;;;;;;4984834;28;20250;-81
2023/01/15 17:13:21;;;;;;;11.10;10.30;;;3.80;99.90;;;;;;4997248;28;20217;-83
2023/01/15 17:16:01;;;;;;;11.00;10.20;;;3.80;99.90;;;;;;4990373;28;20190;-81
2023/01/15 17:18:29;;;;;;;10.90;10.20;;;3.80;99.90;;;;;;4980318;28;20276;-82